createdAt,value
2023-05-15T00:01:47.790Z,98967.34
2023-05-15T00:04:14.915Z,98967.06
2023-05-15T00:06:43.387Z,98970.38
2023-05-15T00:09:11.728Z,98969.25
2023-05-15T00:11:39.184Z,98951.25
2023-05-15T00:14:06.739Z,98937.78
2023-05-15T00:16:34.197Z,98947.44
2023-05-15T00:19:07.897Z,98943.94
2023-05-15T00:21:35.060Z,98930.13
2023-05-15T00:24:02.598Z,98937.69
2023-05-15T00:26:32.143Z,98932.59
2023-05-15T00:28:59.965Z,98932.47
2023-05-15T00:31:27.666Z,98928.69
2023-05-15T00:33:56.005Z,98923.66
2023-05-15T00:36:26.228Z,98926.69
2023-05-15T00:38:59.641Z,98920.16
2023-05-15T00:41:29.052Z,98911.56
2023-05-15T00:43:58.218Z,98909.94
2023-05-15T00:46:28.671Z,98907.63
2023-05-15T00:48:57.107Z,98911.63
2023-05-15T00:51:27.193Z,98904.16
2023-05-15T00:53:56.972Z,98894.19
2023-05-15T00:56:25.271Z,98894.00
2023-05-15T00:58:54.424Z,98886.81
2023-05-15T01:01:22.176Z,98886.16
2023-05-15T01:03:49.335Z,98887.84
2023-05-15T01:06:16.440Z,98888.63
2023-05-15T01:08:49.455Z,98876.56
2023-05-15T01:11:18.613Z,98877.72
2023-05-15T01:13:47.946Z,98872.97
2023-05-15T01:16:15.587Z,98861.16
2023-05-15T01:18:45.089Z,98863.22
2023-05-15T01:21:35.895Z,98847.59
2023-05-15T01:24:43.390Z,98850.06
2023-05-15T01:27:52.878Z,98850.44
2023-05-15T01:30:20.306Z,98846.38
2023-05-15T01:33:18.708Z,98844.28
2023-05-15T01:36:06.384Z,98853.19
2023-05-15T01:38:39.593Z,98849.50
2023-05-15T01:41:23.025Z,98842.56
2023-05-15T01:43:56.900Z,98843.34
2023-05-15T01:46:26.084Z,98842.88
2023-05-15T01:48:55.429Z,98841.72
2023-05-15T01:51:25.258Z,98841.44
2023-05-15T01:53:53.428Z,98842.84
2023-05-15T01:56:23.413Z,98834.88
2023-05-15T01:58:52.788Z,98836.38
2023-05-15T02:01:20.382Z,98834.69
2023-05-15T02:03:48.192Z,98832.22
2023-05-15T02:06:16.816Z,98824.72
2023-05-15T02:08:45.654Z,98830.88
2023-05-15T02:11:14.284Z,98832.69
2023-05-15T02:13:43.686Z,98836.97
2023-05-15T02:16:11.557Z,98845.66
2023-05-15T02:18:38.839Z,98835.06
2023-05-15T02:21:06.296Z,98818.94
2023-05-15T02:23:35.240Z,98819.25
2023-05-15T02:26:23.424Z,98811.88
2023-05-15T02:29:06.166Z,98800.50
2023-05-15T02:31:59.434Z,98802.66
2023-05-15T02:35:03.711Z,98799.00
2023-05-15T02:37:35.429Z,98785.63
2023-05-15T02:40:07.361Z,98787.53
2023-05-15T02:42:36.605Z,98782.31
2023-05-15T02:45:06.060Z,98772.00
2023-05-15T02:47:34.302Z,98764.03
2023-05-15T02:50:02.982Z,98759.13
2023-05-15T02:52:30.623Z,98743.47
2023-05-15T02:54:58.867Z,98742.25
2023-05-15T02:57:27.590Z,98741.59
2023-05-15T02:59:56.369Z,98739.22
2023-05-15T03:02:24.057Z,98742.16
2023-05-15T03:04:54.356Z,98745.56
2023-05-15T03:07:21.995Z,98737.31
2023-05-15T03:09:49.271Z,98720.84
2023-05-15T03:12:23.406Z,98725.66
2023-05-15T03:14:50.949Z,98719.72
2023-05-15T03:17:18.363Z,98712.28
2023-05-15T03:19:46.231Z,98706.38
2023-05-15T03:22:13.950Z,98705.84
2023-05-15T03:24:47.554Z,98700.72
2023-05-15T03:27:16.137Z,98700.50
2023-05-15T03:29:44.961Z,98704.94
2023-05-15T03:32:14.550Z,98711.16
2023-05-15T03:34:41.769Z,98710.94
2023-05-15T03:37:09.207Z,98709.16
2023-05-15T03:39:37.738Z,98707.34
2023-05-15T03:42:06.515Z,98710.75
2023-05-15T03:44:35.377Z,98703.19
2023-05-15T03:47:02.926Z,98700.44
2023-05-15T03:49:30.096Z,98698.06
2023-05-15T03:51:58.261Z,98701.50
2023-05-15T03:54:25.808Z,98703.00
2023-05-15T03:56:59.251Z,98702.22
2023-05-15T03:59:26.532Z,98702.22
2023-05-15T04:02:04.224Z,98708.94
2023-05-15T04:04:33.224Z,98699.84
2023-05-15T04:07:01.176Z,98702.50
2023-05-15T04:09:29.707Z,98702.84
2023-05-15T04:12:00.273Z,98705.38
2023-05-15T04:14:27.775Z,98703.50
2023-05-15T04:16:56.172Z,98698.91
2023-05-15T04:19:23.743Z,98705.72
2023-05-15T04:21:52.248Z,98704.13
2023-05-15T04:24:19.669Z,98698.31
2023-05-15T04:26:47.353Z,98696.81
2023-05-15T04:29:15.526Z,98692.59
2023-05-15T04:31:43.092Z,98699.59
2023-05-15T04:34:10.455Z,98696.66
2023-05-15T04:36:40.599Z,98695.03
2023-05-15T04:39:10.224Z,98687.72
2023-05-15T04:41:37.445Z,98686.88
2023-05-15T04:44:05.042Z,98682.94
2023-05-15T04:46:35.143Z,98676.91
2023-05-15T04:49:02.418Z,98683.47
2023-05-15T04:51:29.861Z,98680.81
2023-05-15T04:53:57.258Z,98677.28
2023-05-15T04:56:24.709Z,98676.84
2023-05-15T04:58:53.282Z,98678.97
2023-05-15T05:01:20.776Z,98672.19
2023-05-15T05:03:47.790Z,98669.28
2023-05-15T05:06:15.049Z,98671.75
2023-05-15T05:08:42.537Z,98670.16
2023-05-15T05:11:10.105Z,98668.75
2023-05-15T05:13:37.503Z,98658.34
2023-05-15T05:16:05.250Z,98652.69
2023-05-15T05:18:34.499Z,98652.19
2023-05-15T05:21:04.274Z,98651.56
2023-05-15T05:23:37.537Z,98655.13
2023-05-15T05:26:06.371Z,98644.84
2023-05-15T05:28:34.076Z,98647.25
2023-05-15T05:31:12.263Z,98646.56
2023-05-15T05:33:39.646Z,98650.16
2023-05-15T05:36:07.563Z,98645.63
2023-05-15T05:38:37.161Z,98643.25
2023-05-15T05:41:04.911Z,98651.56
2023-05-15T05:43:34.044Z,98644.88
2023-05-15T05:46:02.586Z,98641.44
2023-05-15T05:48:31.145Z,98644.81
2023-05-15T05:50:58.742Z,98639.22
2023-05-15T05:53:28.128Z,98641.22
2023-05-15T05:55:55.565Z,98644.09
2023-05-15T05:58:25.952Z,98635.25
2023-05-15T06:00:54.536Z,98630.25
2023-05-15T06:03:23.319Z,98628.34
2023-05-15T06:05:51.541Z,98629.00
2023-05-15T06:08:18.980Z,98632.50
2023-05-15T06:10:46.553Z,98626.66
2023-05-15T06:13:15.241Z,98623.38
2023-05-15T06:15:42.945Z,98619.75
2023-05-15T06:18:10.515Z,98622.41
2023-05-15T06:20:38.547Z,98624.72
2023-05-15T06:23:06.044Z,98623.47
2023-05-15T06:25:33.223Z,98620.91
2023-05-15T06:28:01.127Z,98617.41
2023-05-15T06:30:28.599Z,98620.59
2023-05-15T06:32:56.220Z,98612.88
2023-05-15T06:35:26.803Z,98617.41
2023-05-15T06:37:54.933Z,98615.44
2023-05-15T06:40:25.258Z,98609.25
2023-05-15T06:42:53.065Z,98616.31
2023-05-15T06:45:20.576Z,98608.41
2023-05-15T06:47:48.040Z,98602.97
2023-05-15T06:50:15.549Z,98607.88
2023-05-15T06:52:43.907Z,98615.84
2023-05-15T06:55:13.467Z,98616.69
2023-05-15T06:57:41.827Z,98619.03
2023-05-15T07:00:10.987Z,98604.91
2023-05-15T07:02:38.355Z,98607.34
2023-05-15T07:05:07.117Z,98604.28
2023-05-15T07:07:34.744Z,98603.00
2023-05-15T07:10:02.342Z,98602.66
2023-05-15T07:12:29.921Z,98599.25
2023-05-15T07:15:03.474Z,98603.06
2023-05-15T07:17:33.854Z,98605.81
2023-05-15T07:20:01.382Z,98602.00
2023-05-15T07:22:29.473Z,98598.78
2023-05-15T07:25:02.936Z,98592.63
2023-05-15T07:27:31.393Z,98583.06
2023-05-15T07:29:58.776Z,98591.31
2023-05-15T07:32:26.246Z,98600.47
2023-05-15T07:34:53.556Z,98599.50
2023-05-15T07:37:21.228Z,98595.81
2023-05-15T07:39:48.638Z,98593.81
2023-05-15T07:42:18.139Z,98594.56
2023-05-15T07:44:48.766Z,98597.44
2023-05-15T07:47:17.310Z,98595.31
2023-05-15T07:49:44.687Z,98591.59
2023-05-15T07:52:12.345Z,98586.94
2023-05-15T07:54:42.410Z,98588.84
2023-05-15T07:57:15.863Z,98583.25
2023-05-15T07:59:43.374Z,98585.72
2023-05-15T08:02:10.782Z,98584.69
2023-05-15T08:04:38.265Z,98581.47
2023-05-15T08:07:07.507Z,98585.25
2023-05-15T08:09:35.138Z,98586.13
2023-05-15T08:12:21.551Z,98591.47
2023-05-15T08:14:56.665Z,98585.84
2023-05-15T08:17:25.518Z,98584.88
2023-05-15T08:19:54.291Z,98581.03
2023-05-15T08:22:21.468Z,98582.50
2023-05-15T08:24:49.423Z,98595.34
2023-05-15T08:27:16.729Z,98595.97
2023-05-15T08:29:45.498Z,98603.50
2023-05-15T08:32:12.868Z,98596.38
2023-05-15T08:34:40.430Z,98601.91
2023-05-15T08:37:07.947Z,98596.16
2023-05-15T08:39:35.279Z,98602.56
2023-05-15T08:42:35.511Z,98591.72
2023-05-15T08:45:03.596Z,98595.75
2023-05-15T08:47:36.090Z,98594.16
2023-05-15T08:50:07.149Z,98601.69
2023-05-15T08:52:35.140Z,98601.25
2023-05-15T08:55:04.219Z,98596.53
2023-05-15T08:57:33.951Z,98601.69
2023-05-15T09:00:09.205Z,98590.06
2023-05-15T09:02:37.691Z,98602.31
2023-05-15T09:05:08.582Z,98598.50
2023-05-15T09:07:36.483Z,98603.34
2023-05-15T09:10:11.026Z,98594.19
2023-05-15T09:12:44.096Z,98596.59
2023-05-15T09:15:18.147Z,98597.81
2023-05-15T09:17:46.585Z,98600.69
2023-05-15T09:20:35.417Z,98602.38
2023-05-15T09:23:05.481Z,98605.88
2023-05-15T09:25:44.549Z,98606.50
2023-05-15T09:28:34.152Z,98601.88
2023-05-15T09:31:04.237Z,98608.63
2023-05-15T09:33:39.487Z,98609.13
2023-05-15T09:36:09.289Z,98605.97
2023-05-15T09:38:48.601Z,98602.50
2023-05-15T09:41:26.808Z,98600.94
2023-05-15T09:43:57.040Z,98598.28
2023-05-15T09:46:24.702Z,98606.28
2023-05-15T09:48:56.391Z,98610.13
2023-05-15T09:51:24.052Z,98610.34
2023-05-15T09:53:54.563Z,98603.63
2023-05-15T09:56:22.803Z,98608.88
2023-05-15T09:58:54.952Z,98604.59
2023-05-15T10:01:24.277Z,98607.06
2023-05-15T10:04:02.035Z,98605.34
2023-05-15T10:06:37.339Z,98609.50
2023-05-15T10:09:05.511Z,98604.66
2023-05-15T10:11:40.922Z,98612.19
2023-05-15T10:14:11.390Z,98608.88
2023-05-15T10:16:40.903Z,98612.38
2023-05-15T10:19:18.906Z,98609.34
2023-05-15T10:21:48.582Z,98615.03
2023-05-15T10:24:19.702Z,98618.88
2023-05-15T10:26:48.629Z,98621.00
2023-05-15T10:29:19.669Z,98615.34
2023-05-15T10:31:49.386Z,98606.31
2023-05-15T10:34:19.338Z,98606.19
2023-05-15T10:36:50.617Z,98605.13
2023-05-15T10:39:21.016Z,98599.59
2023-05-15T10:41:51.254Z,98599.09
2023-05-15T10:44:19.826Z,98590.59
2023-05-15T10:46:48.222Z,98596.19
2023-05-15T10:49:15.864Z,98590.88
2023-05-15T10:51:43.394Z,98580.69
2023-05-15T10:54:10.751Z,98593.16
2023-05-15T10:56:40.308Z,98605.41
2023-05-15T10:59:11.749Z,98602.19
2023-05-15T11:01:41.174Z,98604.22
2023-05-15T11:04:19.069Z,98604.31
2023-05-15T11:06:50.959Z,98605.25
2023-05-15T11:09:28.100Z,98608.50
2023-05-15T11:12:20.780Z,98613.97
2023-05-15T11:14:57.383Z,98604.34
2023-05-15T11:17:24.948Z,98604.41
2023-05-15T11:19:53.305Z,98611.63
2023-05-15T11:22:23.300Z,98597.47
2023-05-15T11:25:10.771Z,98592.56
2023-05-15T11:27:42.028Z,98583.19
2023-05-15T11:30:22.738Z,98580.19
2023-05-15T11:33:11.624Z,98579.78
2023-05-15T11:35:40.441Z,98590.41
2023-05-15T11:38:15.344Z,98597.13
2023-05-15T11:40:58.768Z,98599.22
2023-05-15T11:43:32.587Z,98583.47
2023-05-15T11:46:12.986Z,98564.25
2023-05-15T11:48:45.002Z,98560.13
2023-05-15T11:51:21.604Z,98574.34
2023-05-15T11:53:54.118Z,98562.50
2023-05-15T11:56:24.066Z,98558.78
2023-05-15T11:59:01.599Z,98564.44
2023-05-15T12:01:48.654Z,98563.25
2023-05-15T12:04:17.124Z,98549.97
2023-05-15T12:06:47.694Z,98559.34
2023-05-15T12:09:17.116Z,98558.94
2023-05-15T12:11:54.853Z,98559.09
2023-05-15T12:14:30.111Z,98558.66
2023-05-15T12:17:07.805Z,98555.53
2023-05-15T12:19:37.625Z,98555.50
2023-05-15T12:22:08.740Z,98563.34
2023-05-15T12:24:40.150Z,98553.06
2023-05-15T12:27:10.274Z,98568.03
2023-05-15T12:29:38.821Z,98558.38
2023-05-15T12:32:08.514Z,98558.28
2023-05-15T12:34:37.512Z,98565.94
2023-05-15T12:37:07.067Z,98567.81
2023-05-15T12:39:34.557Z,98553.38
2023-05-15T12:42:01.888Z,98563.41
2023-05-15T12:44:32.299Z,98566.34
2023-05-15T12:46:59.774Z,98572.31
2023-05-15T12:49:28.517Z,98576.56
2023-05-15T12:51:55.927Z,98568.47
2023-05-15T12:54:24.574Z,98576.41
2023-05-15T12:56:52.013Z,98569.28
2023-05-15T12:59:20.355Z,98575.69
2023-05-15T13:01:47.805Z,98587.81
2023-05-15T13:04:16.801Z,98580.81
2023-05-15T13:06:46.860Z,98582.88
2023-05-15T13:09:21.552Z,98581.88
2023-05-15T13:11:49.255Z,98587.19
2023-05-15T13:14:21.461Z,98590.78
2023-05-15T13:16:48.826Z,98599.06
2023-05-15T13:19:17.112Z,98596.94
2023-05-15T13:21:46.074Z,98592.69
2023-05-15T13:24:13.755Z,98607.66
2023-05-15T13:26:41.813Z,98602.25
2023-05-15T13:29:09.206Z,98602.69
2023-05-15T13:31:36.712Z,98591.00
2023-05-15T13:34:04.089Z,98593.53
2023-05-15T13:36:31.819Z,98584.84
2023-05-15T13:39:00.023Z,98590.75
2023-05-15T13:41:27.493Z,98592.69
2023-05-15T13:43:54.943Z,98602.66
2023-05-15T13:46:23.530Z,98610.72
2023-05-15T13:48:51.067Z,98616.16
2023-05-15T13:51:19.402Z,98602.34
2023-05-15T13:53:46.710Z,98604.47
2023-05-15T13:56:14.343Z,98604.69
2023-05-15T13:58:42.775Z,98614.75
2023-05-15T14:01:10.370Z,98614.31
2023-05-15T14:03:37.596Z,98614.13
2023-05-15T14:06:06.230Z,98617.72
2023-05-15T14:08:34.203Z,98613.78
2023-05-15T14:11:02.025Z,98609.25
2023-05-15T14:13:33.446Z,98614.75
2023-05-15T14:16:01.055Z,98622.72
2023-05-15T14:18:31.798Z,98624.41
2023-05-15T14:20:59.549Z,98622.50
2023-05-15T14:23:27.106Z,98627.81
2023-05-15T14:25:54.426Z,98626.16
2023-05-15T14:28:22.035Z,98626.88
2023-05-15T14:30:49.347Z,98629.03
2023-05-15T14:33:16.829Z,98629.25
2023-05-15T14:35:44.357Z,98618.00
2023-05-15T14:38:12.634Z,98614.13
2023-05-15T14:40:43.401Z,98617.78
2023-05-15T14:43:12.229Z,98606.03
2023-05-15T14:45:39.761Z,98615.38
2023-05-15T14:48:07.241Z,98614.63
2023-05-15T14:50:34.650Z,98616.03
2023-05-15T14:53:02.184Z,98612.78
2023-05-15T14:55:29.562Z,98608.34
2023-05-15T14:57:58.502Z,98608.81
2023-05-15T15:00:26.321Z,98606.75
2023-05-15T15:02:54.328Z,98614.00
2023-05-15T15:05:23.297Z,98614.09
2023-05-15T15:08:11.183Z,98623.72
2023-05-15T15:10:40.852Z,98625.94
2023-05-15T15:13:10.347Z,98624.47
2023-05-15T15:15:38.003Z,98633.66
2023-05-15T15:18:05.331Z,98638.72
2023-05-15T15:20:33.035Z,98632.00
2023-05-15T15:23:00.137Z,98631.78
2023-05-15T15:25:28.482Z,98640.16
2023-05-15T15:27:58.116Z,98626.69
2023-05-15T15:30:26.040Z,98630.25
2023-05-15T15:32:56.099Z,98629.63
2023-05-15T15:35:24.853Z,98633.97
2023-05-15T15:37:53.557Z,98648.75
2023-05-15T15:40:24.335Z,98640.69
2023-05-15T15:42:54.495Z,98648.59
2023-05-15T15:45:21.743Z,98649.28
2023-05-15T15:47:49.289Z,98641.94
2023-05-15T15:50:17.599Z,98651.88
2023-05-15T15:52:45.149Z,98643.69
2023-05-15T15:55:12.537Z,98656.72
2023-05-15T15:57:40.119Z,98651.09
2023-05-15T16:00:10.044Z,98662.91
2023-05-15T16:02:37.583Z,98658.66
2023-05-15T16:05:05.263Z,98661.75
2023-05-15T16:07:39.524Z,98675.78
2023-05-15T16:10:13.122Z,98661.94
2023-05-15T16:12:42.790Z,98674.84
2023-05-15T16:17:42.223Z,98672.81
2023-05-15T16:20:11.633Z,98667.81
2023-05-15T16:22:41.989Z,98671.63
2023-05-15T16:25:15.360Z,98676.13
2023-05-15T16:27:42.838Z,98677.25
2023-05-15T16:30:11.840Z,98683.06
2023-05-15T16:32:39.928Z,98681.56
2023-05-15T16:35:08.017Z,98693.25
2023-05-15T16:37:35.227Z,98695.00
2023-05-15T16:40:03.170Z,98686.81
2023-05-15T16:42:34.943Z,98699.69
2023-05-15T16:45:02.183Z,98700.47
2023-05-15T16:47:29.683Z,98698.72
2023-05-15T16:49:58.204Z,98695.44
2023-05-15T16:52:25.691Z,98693.75
2023-05-15T16:54:55.155Z,98706.19
2023-05-15T16:57:23.581Z,98708.66
2023-05-15T16:59:51.118Z,98694.06
2023-05-15T17:02:19.646Z,98695.22
2023-05-15T17:04:53.594Z,98690.47
2023-05-15T17:07:21.758Z,98701.69
2023-05-15T17:09:50.046Z,98705.31
2023-05-15T17:12:17.596Z,98710.19
2023-05-15T17:14:45.161Z,98703.19
2023-05-15T17:17:15.120Z,98710.63
2023-05-15T17:19:42.452Z,98718.44
2023-05-15T17:22:09.906Z,98719.97
2023-05-15T17:24:50.182Z,98716.94
2023-05-15T17:27:20.805Z,98712.75
2023-05-15T17:29:49.517Z,98713.81
2023-05-15T17:32:18.286Z,98708.63
2023-05-15T17:34:46.427Z,98710.78
2023-05-15T17:37:15.154Z,98715.44
2023-05-15T17:39:43.168Z,98711.44
2023-05-15T17:42:11.906Z,98717.44
2023-05-15T17:44:39.507Z,98718.06
2023-05-15T17:47:12.859Z,98723.63
2023-05-15T17:49:42.352Z,98729.84
2023-05-15T17:52:10.939Z,98727.13
2023-05-15T17:54:38.217Z,98728.94
2023-05-15T17:57:06.739Z,98738.56
2023-05-15T17:59:34.504Z,98747.44
2023-05-15T18:02:03.273Z,98745.75
2023-05-15T18:04:30.729Z,98749.59
2023-05-15T18:06:59.302Z,98755.28
2023-05-15T18:09:28.695Z,98751.13
2023-05-15T18:11:58.228Z,98761.31
2023-05-15T18:14:25.727Z,98765.59
2023-05-15T18:16:53.026Z,98751.47
2023-05-15T18:19:20.761Z,98763.19
2023-05-15T18:21:48.528Z,98765.34
2023-05-15T18:24:17.155Z,98776.38
2023-05-15T18:26:45.469Z,98769.56
2023-05-15T18:29:13.116Z,98773.19
2023-05-15T18:31:40.356Z,98778.47
2023-05-15T18:34:08.776Z,98788.22
2023-05-15T18:36:36.251Z,98786.25
2023-05-15T18:39:04.068Z,98791.72
2023-05-15T18:41:31.180Z,98790.31
2023-05-15T18:43:59.712Z,98794.59
2023-05-15T18:46:28.616Z,98793.44
2023-05-15T18:48:56.308Z,98795.69
2023-05-15T18:51:24.512Z,98792.91
2023-05-15T18:53:52.255Z,98799.06
2023-05-15T18:56:19.548Z,98797.34
2023-05-15T18:58:47.697Z,98799.22
2023-05-15T19:01:15.988Z,98814.63
2023-05-15T19:03:43.261Z,98815.84
2023-05-15T19:06:13.715Z,98810.06
2023-05-15T19:08:42.992Z,98820.47
2023-05-15T19:11:10.385Z,98819.44
2023-05-15T19:13:38.784Z,98823.13
2023-05-15T19:16:08.668Z,98834.44
2023-05-15T19:18:35.969Z,98836.81
2023-05-15T19:21:05.320Z,98832.81
2023-05-15T19:23:32.968Z,98833.34
2023-05-15T19:26:00.389Z,98843.34
2023-05-15T19:28:28.238Z,98840.88
2023-05-15T19:30:55.737Z,98846.34
2023-05-15T19:33:23.441Z,98844.97
2023-05-15T19:35:50.573Z,98842.88
2023-05-15T19:38:19.481Z,98841.44
2023-05-15T19:40:46.993Z,98832.22
2023-05-15T19:43:15.681Z,98832.56
2023-05-15T19:45:43.787Z,98844.56
2023-05-15T19:48:12.856Z,98843.47
2023-05-15T19:50:40.586Z,98849.63
2023-05-15T19:53:14.296Z,98847.03
2023-05-15T19:55:42.517Z,98853.38
2023-05-15T19:58:11.245Z,98851.38
2023-05-15T20:00:38.664Z,98851.41
2023-05-15T20:03:06.128Z,98864.56
2023-05-15T20:05:33.913Z,98862.75
2023-05-15T20:08:01.332Z,98860.03
2023-05-15T20:10:28.789Z,98857.78
2023-05-15T20:12:56.368Z,98861.81
2023-05-15T20:15:25.876Z,98870.97
2023-05-15T20:17:54.003Z,98872.13
2023-05-15T20:20:33.140Z,98863.59
2023-05-15T20:23:01.427Z,98870.00
2023-05-15T20:25:29.815Z,98867.03
2023-05-15T20:28:05.565Z,98865.25
2023-05-15T20:30:33.174Z,98872.66
2023-05-15T20:33:00.782Z,98870.28
2023-05-15T20:35:30.016Z,98878.78
2023-05-15T20:38:00.170Z,98878.97
2023-05-15T20:40:27.937Z,98881.44
2023-05-15T20:43:07.717Z,98882.41
2023-05-15T20:45:37.279Z,98881.03
2023-05-15T20:48:05.845Z,98884.78
2023-05-15T20:50:33.139Z,98884.94
2023-05-15T20:53:00.648Z,98888.53
2023-05-15T20:55:29.148Z,98888.53
2023-05-15T20:57:56.661Z,98896.31
2023-05-15T21:00:24.255Z,98893.81
2023-05-15T21:02:52.125Z,98895.72
2023-05-15T21:05:19.432Z,98885.47
2023-05-15T21:07:46.912Z,98886.66
2023-05-15T21:10:14.371Z,98886.66
2023-05-15T21:12:42.882Z,98883.47
2023-05-15T21:15:10.494Z,98895.38
2023-05-15T21:17:37.813Z,98891.22
2023-05-15T21:20:05.677Z,98891.38
2023-05-15T21:22:33.598Z,98882.06
2023-05-15T21:25:01.275Z,98888.63
2023-05-15T21:27:28.680Z,98885.31
2023-05-15T21:30:04.581Z,98884.56
2023-05-15T21:32:32.918Z,98885.31
2023-05-15T21:35:02.320Z,98893.25
2023-05-15T21:37:29.806Z,98885.00
2023-05-15T21:39:58.194Z,98881.69
2023-05-15T21:42:26.743Z,98875.59
2023-05-15T21:45:00.330Z,98887.50
2023-05-15T21:47:27.701Z,98885.09
2023-05-15T21:49:55.099Z,98877.63
2023-05-15T21:52:22.861Z,98888.16
2023-05-15T21:54:50.340Z,98887.06
2023-05-15T21:57:24.840Z,98891.75
2023-05-15T21:59:53.199Z,98892.63
2023-05-15T22:02:22.829Z,98888.38
2023-05-15T22:04:50.166Z,98896.88
2023-05-15T22:07:17.830Z,98891.97
2023-05-15T22:09:45.383Z,98899.56
2023-05-15T22:12:12.586Z,98902.06
2023-05-15T22:14:54.522Z,98908.75
2023-05-15T22:17:30.875Z,98904.28
2023-05-15T22:20:07.929Z,98905.91
2023-05-15T22:22:36.260Z,98916.91
2023-05-15T22:25:04.096Z,98924.47
2023-05-15T22:27:32.146Z,98927.56
2023-05-15T22:29:59.870Z,98921.34
2023-05-15T22:32:27.112Z,98927.88
2023-05-15T22:34:56.119Z,98925.78
2023-05-15T22:37:25.501Z,98919.03
2023-05-15T22:39:59.002Z,98926.09
2023-05-15T22:42:28.375Z,98926.03
2023-05-15T22:44:57.741Z,98927.97
2023-05-15T22:47:38.430Z,98924.75
2023-05-15T22:50:06.253Z,98920.78
2023-05-15T22:52:33.801Z,98920.63
2023-05-15T22:55:01.158Z,98919.91
2023-05-15T22:57:29.326Z,98918.88
2023-05-15T22:59:56.702Z,98929.66
2023-05-15T23:02:25.118Z,98931.53
2023-05-15T23:04:53.553Z,98935.16
2023-05-15T23:07:21.002Z,98936.03
2023-05-15T23:09:48.496Z,98926.16
2023-05-15T23:12:15.919Z,98933.63
2023-05-15T23:14:45.503Z,98937.63
2023-05-15T23:17:13.020Z,98940.81
2023-05-15T23:19:41.067Z,98939.97
2023-05-15T23:22:12.719Z,98938.25
2023-05-15T23:24:40.935Z,98938.53
2023-05-15T23:27:09.429Z,98933.97
2023-05-15T23:29:36.944Z,98944.19
2023-05-15T23:32:07.644Z,98944.34
2023-05-15T23:34:34.829Z,98942.78
2023-05-15T23:37:02.512Z,98948.00
2023-05-15T23:39:29.774Z,98946.06
2023-05-15T23:41:57.566Z,98939.09
2023-05-15T23:44:24.686Z,98946.00
2023-05-15T23:46:52.064Z,98945.94
2023-05-15T23:49:19.552Z,98951.56
2023-05-15T23:51:47.145Z,98950.91
2023-05-15T23:54:14.494Z,98948.63
2023-05-15T23:56:41.927Z,98955.06
2023-05-15T23:59:09.458Z,98964.75
